createdAt,value
2023-01-09T00:01:29.657Z,94728.75
2023-01-09T00:03:57.748Z,94734.13
2023-01-09T00:06:25.916Z,94739.84
2023-01-09T00:08:55.550Z,94733.88
2023-01-09T00:11:24.156Z,94734.56
2023-01-09T00:13:52.546Z,94747.38
2023-01-09T00:16:20.840Z,94742.44
2023-01-09T00:18:49.226Z,94757.56
2023-01-09T00:21:20.530Z,94765.78
2023-01-09T00:23:49.380Z,94753.94
2023-01-09T00:26:20.578Z,94776.41
2023-01-09T00:28:49.923Z,94787.06
2023-01-09T00:31:18.613Z,94791.00
2023-01-09T00:33:50.073Z,94795.75
2023-01-09T00:36:18.297Z,94795.50
2023-01-09T00:38:46.549Z,94796.94
2023-01-09T00:41:17.084Z,94793.31
2023-01-09T00:43:49.269Z,94794.78
2023-01-09T00:46:18.008Z,94796.78
2023-01-09T00:48:47.802Z,94793.16
2023-01-09T00:51:16.770Z,94798.56
2023-01-09T00:53:45.483Z,94789.31
2023-01-09T00:56:17.261Z,94792.03
2023-01-09T00:58:47.089Z,94785.09
2023-01-09T01:01:15.493Z,94793.69
2023-01-09T01:03:43.775Z,94793.69
2023-01-09T01:06:29.636Z,94786.91
2023-01-09T01:08:57.990Z,94769.44
2023-01-09T01:11:26.533Z,94769.75
2023-01-09T01:13:56.124Z,94772.00
2023-01-09T01:16:24.430Z,94771.78
2023-01-09T01:18:52.749Z,94771.53
2023-01-09T01:21:21.007Z,94766.63
2023-01-09T01:23:49.312Z,94769.59
2023-01-09T01:26:17.930Z,94763.91
2023-01-09T01:28:46.166Z,94769.22
2023-01-09T01:31:20.042Z,94752.63
2023-01-09T01:33:48.537Z,94747.50
2023-01-09T01:36:17.893Z,94758.72
2023-01-09T01:38:47.875Z,94768.13
2023-01-09T01:41:29.400Z,94764.53
2023-01-09T01:43:59.833Z,94755.63
2023-01-09T01:46:29.853Z,94747.38
2023-01-09T01:49:00.819Z,94750.47
2023-01-09T01:51:30.683Z,94750.03
2023-01-09T01:54:01.334Z,94735.63
2023-01-09T01:56:30.198Z,94732.44
2023-01-09T01:59:02.699Z,94729.56
2023-01-09T02:01:33.883Z,94750.97
2023-01-09T02:04:03.199Z,94757.28
2023-01-09T02:06:32.050Z,94771.81
2023-01-09T02:09:00.380Z,94771.38
2023-01-09T02:11:29.129Z,94770.78
2023-01-09T02:13:57.471Z,94767.16
2023-01-09T02:16:38.079Z,94763.31
2023-01-09T02:19:13.933Z,94743.88
2023-01-09T02:21:51.826Z,94739.19
2023-01-09T02:24:50.566Z,94749.25
2023-01-09T02:27:37.911Z,94752.22
2023-01-09T02:30:21.798Z,94758.00
2023-01-09T02:33:01.151Z,94747.16
2023-01-09T02:35:50.556Z,94746.75
2023-01-09T02:38:25.139Z,94746.75
2023-01-09T02:40:59.411Z,94748.88
2023-01-09T02:43:27.735Z,94750.22
2023-01-09T02:45:57.381Z,94755.19
2023-01-09T02:48:25.889Z,94758.81
2023-01-09T02:51:02.706Z,94748.53
2023-01-09T02:54:02.973Z,94743.94
2023-01-09T02:57:02.285Z,94736.25
2023-01-09T02:59:34.014Z,94733.00
2023-01-09T03:02:18.253Z,94733.09
2023-01-09T03:04:53.439Z,94728.09
2023-01-09T03:07:24.994Z,94737.38
2023-01-09T03:09:57.607Z,94744.84
2023-01-09T03:12:28.952Z,94746.69
2023-01-09T03:14:59.764Z,94741.91
2023-01-09T03:17:29.982Z,94736.75
2023-01-09T03:19:58.683Z,94733.13
2023-01-09T03:22:26.944Z,94738.13
2023-01-09T03:24:55.213Z,94736.34
2023-01-09T03:27:23.513Z,94737.41
2023-01-09T03:29:53.354Z,94736.72
2023-01-09T03:32:22.103Z,94737.91
2023-01-09T03:34:51.973Z,94736.41
2023-01-09T03:37:20.209Z,94734.41
2023-01-09T03:39:48.495Z,94735.88
2023-01-09T03:42:16.753Z,94739.03
2023-01-09T03:44:44.967Z,94734.41
2023-01-09T03:47:13.339Z,94729.53
2023-01-09T03:49:41.574Z,94730.13
2023-01-09T03:52:13.899Z,94730.47
2023-01-09T03:54:42.402Z,94730.03
2023-01-09T03:57:10.860Z,94735.03
2023-01-09T03:59:39.316Z,94733.41
2023-01-09T04:02:07.985Z,94735.88
2023-01-09T04:04:36.397Z,94728.47
2023-01-09T04:07:04.790Z,94726.25
2023-01-09T04:09:34.487Z,94733.03
2023-01-09T04:12:02.838Z,94737.25
2023-01-09T04:14:31.160Z,94744.56
2023-01-09T04:16:59.669Z,94741.03
2023-01-09T04:19:28.081Z,94745.25
2023-01-09T04:21:56.383Z,94754.00
2023-01-09T04:24:24.708Z,94750.28
2023-01-09T04:26:54.472Z,94749.38
2023-01-09T04:29:22.925Z,94756.19
2023-01-09T04:31:51.536Z,94763.19
2023-01-09T04:34:25.470Z,94755.88
2023-01-09T04:36:54.710Z,94758.56
2023-01-09T04:39:23.683Z,94779.22
2023-01-09T04:41:51.992Z,94784.34
2023-01-09T04:44:26.147Z,94779.25
2023-01-09T04:46:55.709Z,94784.91
2023-01-09T04:49:24.099Z,94791.28
2023-01-09T04:51:52.692Z,94791.91
2023-01-09T04:54:21.529Z,94802.19
2023-01-09T04:56:49.861Z,94797.00
2023-01-09T04:59:18.331Z,94796.56
2023-01-09T05:01:48.150Z,94796.75
2023-01-09T05:04:16.567Z,94811.56
2023-01-09T05:06:44.927Z,94808.25
2023-01-09T05:09:13.192Z,94818.41
2023-01-09T05:11:41.460Z,94819.81
2023-01-09T05:14:09.757Z,94833.53
2023-01-09T05:16:38.036Z,94837.84
2023-01-09T05:19:07.786Z,94848.25
2023-01-09T05:21:36.256Z,94844.94
2023-01-09T05:24:04.603Z,94864.41
2023-01-09T05:26:32.893Z,94863.06
2023-01-09T05:29:01.136Z,94873.31
2023-01-09T05:31:29.580Z,94882.06
2023-01-09T05:33:59.306Z,94874.97
2023-01-09T05:36:29.770Z,94880.75
2023-01-09T05:38:58.837Z,94891.19
2023-01-09T05:41:27.186Z,94883.25
2023-01-09T05:43:55.593Z,94894.09
2023-01-09T05:46:24.260Z,94908.81
2023-01-09T05:48:52.667Z,94898.47
2023-01-09T05:51:21.007Z,94907.16
2023-01-09T05:53:50.659Z,94906.31
2023-01-09T05:56:18.941Z,94912.63
2023-01-09T05:58:47.248Z,94914.38
2023-01-09T06:01:15.710Z,94880.28
2023-01-09T06:03:43.981Z,94919.19
2023-01-09T06:06:12.334Z,94921.75
2023-01-09T06:08:40.624Z,94918.91
2023-01-09T06:11:10.375Z,94934.34
2023-01-09T06:13:38.687Z,94943.81
2023-01-09T06:16:08.207Z,94939.72
2023-01-09T06:18:36.520Z,94943.25
2023-01-09T06:21:08.686Z,94943.00
2023-01-09T06:23:36.964Z,94945.31
2023-01-09T06:26:05.583Z,94947.81
2023-01-09T06:28:35.357Z,94962.25
2023-01-09T06:31:03.877Z,94964.72
2023-01-09T06:33:32.297Z,94971.56
2023-01-09T06:36:00.697Z,94973.25
2023-01-09T06:38:28.983Z,94983.56
2023-01-09T06:40:58.133Z,94989.75
2023-01-09T06:43:26.425Z,94989.78
2023-01-09T06:45:56.153Z,94993.31
2023-01-09T06:48:25.012Z,95005.94
2023-01-09T06:50:53.571Z,94999.94
2023-01-09T06:53:22.137Z,95010.56
2023-01-09T06:55:50.486Z,95019.53
2023-01-09T06:58:18.956Z,95007.31
2023-01-09T07:00:49.397Z,95025.44
2023-01-09T07:03:21.391Z,95014.09
2023-01-09T07:05:50.543Z,95027.97
2023-01-09T07:08:18.815Z,95036.44
2023-01-09T07:10:47.107Z,95029.41
2023-01-09T07:13:15.344Z,95026.13
2023-01-09T07:15:43.676Z,95040.16
2023-01-09T07:18:12.103Z,95041.81
2023-01-09T07:20:41.936Z,95044.22
2023-01-09T07:23:12.349Z,95053.16
2023-01-09T07:25:40.759Z,95071.91
2023-01-09T07:28:09.162Z,95085.38
2023-01-09T07:30:37.521Z,95080.06
2023-01-09T07:33:06.617Z,95085.47
2023-01-09T07:35:35.040Z,95087.94
2023-01-09T07:38:04.688Z,95099.06
2023-01-09T07:40:33.183Z,95112.00
2023-01-09T07:43:01.449Z,95112.09
2023-01-09T07:45:29.720Z,95117.03
2023-01-09T07:47:58.065Z,95118.88
2023-01-09T07:50:26.411Z,95136.78
2023-01-09T07:52:54.773Z,95137.41
2023-01-09T07:55:24.476Z,95137.75
2023-01-09T07:57:53.257Z,95131.19
2023-01-09T08:00:22.239Z,95140.03
2023-01-09T08:02:53.488Z,95134.41
2023-01-09T08:05:22.332Z,95140.03
2023-01-09T08:07:51.525Z,95146.59
2023-01-09T08:10:21.296Z,95139.56
2023-01-09T08:12:51.197Z,95150.56
2023-01-09T08:15:19.867Z,95166.63
2023-01-09T08:17:48.257Z,95164.16
2023-01-09T08:20:18.192Z,95181.75
2023-01-09T08:22:49.728Z,95180.09
2023-01-09T08:25:19.069Z,95173.94
2023-01-09T08:27:47.661Z,95163.78
2023-01-09T08:30:18.500Z,95179.78
2023-01-09T08:32:50.305Z,95157.84
2023-01-09T08:35:18.725Z,95178.53
2023-01-09T08:37:47.427Z,95184.69
2023-01-09T08:40:17.070Z,95204.63
2023-01-09T08:43:03.360Z,95205.44
2023-01-09T08:45:50.973Z,95202.28
2023-01-09T08:48:19.490Z,95211.38
2023-01-09T08:50:47.772Z,95212.13
2023-01-09T08:53:16.463Z,95208.06
2023-01-09T08:55:44.961Z,95230.28
2023-01-09T08:58:13.533Z,95221.22
2023-01-09T09:00:43.178Z,95222.38
2023-01-09T09:03:12.087Z,95228.75
2023-01-09T09:05:40.466Z,95224.16
2023-01-09T09:08:08.939Z,95222.72
2023-01-09T09:10:37.285Z,95210.50
2023-01-09T09:13:05.852Z,95211.22
2023-01-09T09:15:34.521Z,95204.59
2023-01-09T09:18:07.007Z,95203.31
2023-01-09T09:20:37.492Z,95210.34
2023-01-09T09:23:08.133Z,95211.53
2023-01-09T09:25:38.507Z,95211.78
2023-01-09T09:28:07.137Z,95207.66
2023-01-09T09:30:35.466Z,95204.13
2023-01-09T09:33:06.008Z,95204.84
2023-01-09T09:35:35.006Z,95212.13
2023-01-09T09:38:05.496Z,95207.88
2023-01-09T09:40:48.886Z,95210.53
2023-01-09T09:43:48.567Z,95226.09
2023-01-09T09:46:22.570Z,95233.94
2023-01-09T09:48:54.944Z,95236.09
2023-01-09T09:54:46.739Z,95247.41
2023-01-09T09:57:18.501Z,95240.00
2023-01-09T09:59:51.344Z,95231.38
2023-01-09T10:02:27.816Z,95226.84
2023-01-09T10:05:01.092Z,95220.72
2023-01-09T10:07:32.197Z,95219.00
2023-01-09T10:10:05.059Z,95225.31
2023-01-09T10:12:36.341Z,95223.50
2023-01-09T10:15:18.009Z,95215.88
2023-01-09T10:17:57.905Z,95207.13
2023-01-09T10:20:51.908Z,95208.03
2023-01-09T10:23:32.812Z,95204.84
2023-01-09T10:26:05.417Z,95211.72
2023-01-09T10:28:51.138Z,95214.59
2023-01-09T10:31:24.516Z,95211.25
2023-01-09T10:34:01.695Z,95210.53
2023-01-09T10:36:47.207Z,95190.97
2023-01-09T10:39:19.784Z,95199.31
2023-01-09T10:41:55.509Z,95185.16
2023-01-09T10:44:33.196Z,95196.66
2023-01-09T10:47:03.023Z,95196.91
2023-01-09T10:49:31.352Z,95204.03
2023-01-09T10:52:06.877Z,95204.75
2023-01-09T10:54:35.821Z,95194.25
2023-01-09T10:57:08.408Z,95194.41
2023-01-09T10:59:37.305Z,95199.06
2023-01-09T11:02:05.912Z,95207.53
2023-01-09T11:04:37.787Z,95204.91
2023-01-09T11:07:14.198Z,95207.53
2023-01-09T11:09:58.897Z,95201.44
2023-01-09T11:12:28.825Z,95199.78
2023-01-09T11:14:57.502Z,95204.16
2023-01-09T11:17:28.425Z,95187.53
2023-01-09T11:20:04.131Z,95196.34
2023-01-09T11:22:44.397Z,95197.41
2023-01-09T11:25:14.639Z,95190.63
2023-01-09T11:27:43.271Z,95190.31
2023-01-09T11:30:21.229Z,95200.59
2023-01-09T11:32:50.006Z,95199.13
2023-01-09T11:35:24.027Z,95201.47
2023-01-09T11:38:05.867Z,95194.72
2023-01-09T11:40:39.325Z,95197.72
2023-01-09T11:43:19.456Z,95204.78
2023-01-09T11:46:00.746Z,95210.47
2023-01-09T11:48:33.258Z,95213.31
2023-01-09T11:51:04.733Z,95206.38
2023-01-09T11:53:47.014Z,95211.81
2023-01-09T11:56:15.758Z,95210.63
2023-01-09T11:58:44.167Z,95209.47
2023-01-09T12:01:24.661Z,95201.69
2023-01-09T12:04:16.294Z,95198.22
2023-01-09T12:06:51.239Z,95210.50
2023-01-09T12:09:27.772Z,95198.94
2023-01-09T12:12:03.546Z,95194.31
2023-01-09T12:14:45.664Z,95210.88
2023-01-09T12:17:27.206Z,95210.72
2023-01-09T12:20:12.862Z,95213.06
2023-01-09T12:22:45.500Z,95211.69
2023-01-09T12:25:29.188Z,95213.94
2023-01-09T12:28:15.746Z,95222.34
2023-01-09T12:30:52.825Z,95214.81
2023-01-09T12:33:31.556Z,95221.56
2023-01-09T12:36:11.375Z,95217.44
2023-01-09T12:38:46.927Z,95225.63
2023-01-09T12:41:43.074Z,95214.63
2023-01-09T12:44:35.937Z,95220.72
2023-01-09T12:47:17.360Z,95223.97
2023-01-09T12:49:53.696Z,95219.91
2023-01-09T12:52:25.186Z,95219.94
2023-01-09T12:54:56.332Z,95224.25
2023-01-09T12:57:31.443Z,95213.63
2023-01-09T13:00:02.521Z,95213.69
2023-01-09T13:05:22.311Z,95213.59
2023-01-09T13:07:53.980Z,95202.94
2023-01-09T13:10:27.139Z,95214.66
2023-01-09T13:12:58.946Z,95209.13
2023-01-09T13:15:30.929Z,95204.06
2023-01-09T13:18:03.279Z,95206.97
2023-01-09T13:20:35.278Z,95207.88
2023-01-09T13:23:04.514Z,95212.81
2023-01-09T13:25:41.167Z,95198.13
2023-01-09T13:28:16.590Z,95208.66
2023-01-09T13:31:01.931Z,95199.59
2023-01-09T13:33:32.280Z,95193.75
2023-01-09T13:36:02.967Z,95191.75
2023-01-09T13:38:32.859Z,95196.28
2023-01-09T13:41:40.905Z,95194.03
2023-01-09T13:44:23.034Z,95193.66
2023-01-09T13:46:53.561Z,95187.06
2023-01-09T13:49:35.192Z,95199.25
2023-01-09T13:52:05.563Z,95185.72
2023-01-09T13:55:25.508Z,95190.34
2023-01-09T13:58:19.052Z,95193.63
2023-01-09T14:00:56.703Z,95204.56
2023-01-09T14:03:28.359Z,95196.28
2023-01-09T14:06:18.707Z,95201.31
2023-01-09T14:08:52.002Z,95200.28
2023-01-09T14:11:27.375Z,95202.13
2023-01-09T14:14:03.702Z,95196.94
2023-01-09T14:16:33.937Z,95202.69
2023-01-09T14:19:06.123Z,95204.66
2023-01-09T14:21:45.872Z,95206.75
2023-01-09T14:24:22.454Z,95206.53
2023-01-09T14:26:56.652Z,95219.06
2023-01-09T14:29:43.591Z,95213.66
2023-01-09T14:32:47.294Z,95212.47
2023-01-09T14:35:24.166Z,95207.44
2023-01-09T14:38:02.664Z,95212.56
2023-01-09T14:40:31.903Z,95213.59
2023-01-09T14:43:05.856Z,95225.41
2023-01-09T14:45:36.381Z,95225.13
2023-01-09T14:48:06.458Z,95216.50
2023-01-09T14:50:37.812Z,95215.50
2023-01-09T14:53:08.076Z,95226.34
2023-01-09T14:55:44.259Z,95236.97
2023-01-09T14:58:14.119Z,95238.66
2023-01-09T15:00:49.742Z,95236.84
2023-01-09T15:03:19.738Z,95236.47
2023-01-09T15:05:48.704Z,95239.25
2023-01-09T15:08:20.056Z,95235.19
2023-01-09T15:10:49.461Z,95242.41
2023-01-09T15:13:20.324Z,95242.25
2023-01-09T15:15:49.603Z,95244.44
2023-01-09T15:18:23.503Z,95237.13
2023-01-09T15:20:59.096Z,95241.41
2023-01-09T15:23:30.409Z,95237.91
2023-01-09T15:25:59.028Z,95238.22
2023-01-09T15:28:30.947Z,95246.56
2023-01-09T15:31:05.131Z,95246.63
2023-01-09T15:33:35.109Z,95252.38
2023-01-09T15:36:07.212Z,95254.03
2023-01-09T15:38:36.193Z,95259.31
2023-01-09T15:41:08.368Z,95265.53
2023-01-09T15:43:41.050Z,95256.00
2023-01-09T15:46:10.195Z,95252.13
2023-01-09T15:48:39.940Z,95256.19
2023-01-09T15:51:11.934Z,95261.13
2023-01-09T15:53:41.390Z,95270.47
2023-01-09T15:56:20.699Z,95274.56
2023-01-09T15:58:50.010Z,95267.81
2023-01-09T16:01:30.892Z,95261.72
2023-01-09T16:04:06.350Z,95274.94
2023-01-09T16:06:37.206Z,95280.56
2023-01-09T16:09:05.916Z,95278.78
2023-01-09T16:11:35.402Z,95281.78
2023-01-09T16:14:13.426Z,95286.94
2023-01-09T16:16:42.565Z,95293.94
2023-01-09T16:19:31.373Z,95299.06
2023-01-09T16:22:01.440Z,95300.56
2023-01-09T16:24:39.370Z,95310.00
2023-01-09T16:27:20.676Z,95314.16
2023-01-09T16:29:50.534Z,95306.63
2023-01-09T16:32:21.303Z,95315.38
2023-01-09T16:34:52.929Z,95302.72
2023-01-09T16:37:21.886Z,95309.28
2023-01-09T16:40:24.205Z,95307.66
2023-01-09T16:43:06.998Z,95307.66
2023-01-09T16:45:36.882Z,95306.16
2023-01-09T16:48:14.120Z,95314.75
2023-01-09T16:50:44.539Z,95310.97
2023-01-09T16:53:16.579Z,95333.66
2023-01-09T16:55:45.269Z,95336.59
2023-01-09T16:58:16.976Z,95333.97
2023-01-09T17:00:47.978Z,95336.63
2023-01-09T17:03:17.055Z,95336.78
2023-01-09T17:05:53.261Z,95347.31
2023-01-09T17:08:23.079Z,95350.63
2023-01-09T17:10:51.683Z,95355.53
2023-01-09T17:13:19.949Z,95359.16
2023-01-09T17:15:48.546Z,95368.03
2023-01-09T17:18:17.864Z,95366.22
2023-01-09T17:20:50.294Z,95372.28
2023-01-09T17:23:18.593Z,95391.84
2023-01-09T17:26:05.007Z,95385.50
2023-01-09T17:28:33.663Z,95389.09
2023-01-09T17:31:03.403Z,95383.00
2023-01-09T17:33:31.693Z,95397.81
2023-01-09T17:36:02.812Z,95401.09
2023-01-09T17:38:31.169Z,95406.19
2023-01-09T17:40:59.544Z,95399.78
2023-01-09T17:43:28.041Z,95405.53
2023-01-09T17:45:58.739Z,95411.44
2023-01-09T17:48:27.147Z,95423.47
2023-01-09T17:50:55.500Z,95432.84
2023-01-09T17:53:25.559Z,95436.97
2023-01-09T17:55:53.904Z,95434.50
2023-01-09T17:58:26.578Z,95432.34
2023-01-09T18:00:54.906Z,95433.00
2023-01-09T18:03:25.986Z,95432.66
2023-01-09T18:05:54.338Z,95438.28
2023-01-09T18:08:22.624Z,95440.41
2023-01-09T18:10:52.395Z,95450.63
2023-01-09T18:13:20.784Z,95448.31
2023-01-09T18:15:49.552Z,95453.91
2023-01-09T18:18:17.819Z,95460.25
2023-01-09T18:20:46.674Z,95453.19
2023-01-09T18:23:15.342Z,95464.88
2023-01-09T18:25:44.336Z,95468.78
2023-01-09T18:28:15.896Z,95472.09
2023-01-09T18:30:45.560Z,95461.88
2023-01-09T18:33:14.738Z,95478.34
2023-01-09T18:35:43.462Z,95475.97
2023-01-09T18:38:12.152Z,95489.44
2023-01-09T18:40:41.763Z,95487.09
2023-01-09T18:43:11.453Z,95487.28
2023-01-09T18:45:41.355Z,95491.34
2023-01-09T18:48:10.507Z,95497.78
2023-01-09T18:50:38.900Z,95501.03
2023-01-09T18:53:07.489Z,95496.91
2023-01-09T18:55:37.685Z,95503.50
2023-01-09T18:58:06.503Z,95503.28
2023-01-09T19:00:34.891Z,95511.22
2023-01-09T19:03:04.870Z,95515.31
2023-01-09T19:05:33.537Z,95517.44
2023-01-09T19:08:01.871Z,95516.50
2023-01-09T19:10:30.180Z,95522.09
2023-01-09T19:12:58.449Z,95522.34
2023-01-09T19:15:28.040Z,95527.72
2023-01-09T19:17:58.278Z,95530.84
2023-01-09T19:20:28.243Z,95537.13
2023-01-09T19:22:57.487Z,95548.25
2023-01-09T19:25:25.823Z,95537.13
2023-01-09T19:27:56.126Z,95545.63
2023-01-09T19:30:24.541Z,95553.03
2023-01-09T19:32:52.854Z,95546.44
2023-01-09T19:35:21.307Z,95538.00
2023-01-09T19:37:51.202Z,95546.75
2023-01-09T19:40:19.737Z,95559.69
2023-01-09T19:42:48.615Z,95566.44
2023-01-09T19:45:17.176Z,95570.09
2023-01-09T19:47:47.361Z,95576.47
2023-01-09T19:50:16.607Z,95586.16
2023-01-09T19:52:45.169Z,95585.97
2023-01-09T19:55:15.418Z,95589.31
2023-01-09T19:57:45.171Z,95586.94
2023-01-09T20:00:14.419Z,95585.78
2023-01-09T20:02:43.057Z,95593.72
2023-01-09T20:05:11.438Z,95586.88
2023-01-09T20:07:39.743Z,95597.25
2023-01-09T20:10:08.843Z,95610.63
2023-01-09T20:12:38.461Z,95604.75
2023-01-09T20:15:09.930Z,95603.03
2023-01-09T20:17:38.245Z,95602.44
2023-01-09T20:20:07.596Z,95606.34
2023-01-09T20:22:35.877Z,95606.34
2023-01-09T20:25:04.259Z,95623.88
2023-01-09T20:27:32.565Z,95615.47
2023-01-09T20:30:02.240Z,95620.19
2023-01-09T20:32:32.341Z,95625.91
2023-01-09T20:35:02.394Z,95623.69
2023-01-09T20:37:31.570Z,95631.22
2023-01-09T20:39:59.850Z,95631.56
2023-01-09T20:42:28.119Z,95633.44
2023-01-09T20:44:57.147Z,95640.16
2023-01-09T20:47:26.835Z,95649.47
2023-01-09T20:49:55.062Z,95638.53
2023-01-09T20:52:23.337Z,95650.44
2023-01-09T20:54:51.575Z,95641.00
2023-01-09T20:57:19.814Z,95651.66
2023-01-09T20:59:48.211Z,95664.09
2023-01-09T21:02:16.491Z,95660.28
2023-01-09T21:04:46.179Z,95667.81
2023-01-09T21:07:14.417Z,95660.06
2023-01-09T21:09:42.641Z,95685.34
2023-01-09T21:15:06.442Z,95689.84
2023-01-09T21:17:34.899Z,95701.63
2023-01-09T21:20:03.467Z,95689.84
2023-01-09T21:22:33.493Z,95695.34
2023-01-09T21:25:01.773Z,95680.19
2023-01-09T21:27:31.454Z,95689.41
2023-01-09T21:29:59.700Z,95685.56
2023-01-09T21:32:30.181Z,95690.56
2023-01-09T21:35:03.153Z,95705.56
2023-01-09T21:37:32.524Z,95705.16
2023-01-09T21:40:01.111Z,95702.44
2023-01-09T21:42:47.035Z,95707.91
2023-01-09T21:45:33.464Z,95708.13
2023-01-09T21:48:05.025Z,95727.06
2023-01-09T21:50:34.426Z,95720.69
2023-01-09T21:53:02.755Z,95721.34
2023-01-09T21:55:32.067Z,95728.53
2023-01-09T21:58:01.201Z,95735.25
2023-01-09T22:00:29.957Z,95730.19
2023-01-09T22:02:59.052Z,95734.56
2023-01-09T22:05:28.749Z,95735.34
2023-01-09T22:07:57.399Z,95723.06
2023-01-09T22:10:25.789Z,95732.22
2023-01-09T22:13:11.395Z,95733.72
2023-01-09T22:15:41.291Z,95748.00
2023-01-09T22:18:09.696Z,95749.31
2023-01-09T22:20:39.388Z,95750.06
2023-01-09T22:23:07.933Z,95752.38
2023-01-09T22:25:37.663Z,95762.06
2023-01-09T22:28:06.337Z,95758.28
2023-01-09T22:30:34.685Z,95768.06
2023-01-09T22:33:03.012Z,95756.69
2023-01-09T22:35:31.325Z,95767.25
2023-01-09T22:38:01.146Z,95776.16
2023-01-09T22:40:29.556Z,95776.22
2023-01-09T22:42:57.964Z,95775.38
2023-01-09T22:45:26.459Z,95777.97
2023-01-09T22:47:54.721Z,95778.13
2023-01-09T22:50:23.053Z,95782.38
2023-01-09T22:52:51.566Z,95783.66
2023-01-09T22:55:21.213Z,95780.09
2023-01-09T22:57:49.560Z,95791.09
2023-01-09T23:00:18.635Z,95792.72
2023-01-09T23:02:48.384Z,95803.91
2023-01-09T23:05:16.982Z,95804.13
2023-01-09T23:07:45.313Z,95798.22
2023-01-09T23:10:13.710Z,95804.19
2023-01-09T23:12:47.637Z,95812.88
2023-01-09T23:15:16.076Z,95813.00
2023-01-09T23:17:44.364Z,95804.94
2023-01-09T23:20:13.205Z,95808.44
2023-01-09T23:22:41.511Z,95822.69
2023-01-09T23:25:14.342Z,95828.09
2023-01-09T23:27:44.043Z,95829.00
2023-01-09T23:30:12.978Z,95826.25
2023-01-09T23:32:41.320Z,95829.78
2023-01-09T23:35:10.386Z,95826.31
2023-01-09T23:37:38.840Z,95834.63
2023-01-09T23:40:07.884Z,95829.56
2023-01-09T23:42:53.674Z,95827.50
2023-01-09T23:45:23.928Z,95843.03
2023-01-09T23:47:52.534Z,95841.06
2023-01-09T23:50:20.994Z,95845.97
2023-01-09T23:52:49.308Z,95847.53
2023-01-09T23:55:17.828Z,95852.03
2023-01-09T23:57:46.127Z,95863.97
